Paradise, Utah
Current Conditions -  °F | °C
As of 12:35 AM on Thursday 23 Oct 2014 (Local Time) from KBMC Reporting Station
Clear Clear  
Wind Chill: 42°   Ceiling: Unl
Heat Index: 42°   Visibility: 10mi
Dew Point: 31°   Wind: 0mph
Humidity: 66%   Direction: NA
Pressure: 30.17"   Gusts: NA
Location:  41.57°N, 111.84°W
Report Text: KBMC 230635Z AUTO 00000KT 10SM CLR 05/00 A3017 RMK AO1 T00541005
Loading
Personal Weather Stations






























Interactive Weather Map
Tropical Storm Tracking
New forecast layout! Learn more

10-Day Weather Forecast

Advertisements
Track Severe Weather on mobile